aviador You're here:

OIFM Decoded Metar

ESFAHAN in IRAN
Report Time2018-01-21 08:00:00
UTC Time2018-01-21 08:33:59
Flight Rules mvfr MVFR
Wind290° at 10 kt
W.Decomp.*RWY 26: 8.8 kt HW 4.7 kt RCW
W.Rank290° ranks 6
Current wind is above 290° avg. (6.3)
Visibility7000 m
Phenomena:N/A
Clouds:N/A
Expected CloudBase > 2,800 ft AGL from Temp-Dew spread
CeilingNone
Temp03°C (ISA -2)
Dew Point-4°C (60% RH)
AAT-3.1°C
QNH1022 hPa
Density Alt4,596 ft
Elevation5,059 ft
Report Wrong Elevation
Raw Report
METAR OIFM 210800Z 29010KT 7000 NSC 03/M04 Q1022 A3020=

Extra information for OIFM:More info

Metar Taf Metar & Taf Last 4 Metars F.Rules Stats Wind Profile Meteogram Temp Stats Airport Information Weather charts Add Link Nearby VenuesMetar ALERT Operation Metar Decoded Social comments